Time;durP1;ratioP1;P1;durP2;ratioP2;P2;SDS_P1;SDS_P2;PMS_P1;PMS_P2;Temp;Humidity;BMP_temperature;BMP_pressure;BME280_temperature;BME280_humidity;BME280_pressure;Samples;Min_cycle;Max_cycle;Signal;HPM_P1;HPM_P2
2022/12/27 00:00:01;;;;;;;7.77;2.20;;;;;;;;;;5013390;28;20445;-49
2022/12/27 00:02:29;;;;;;;8.43;2.60;;;;;;;;;;5013214;28;20499;-49
2022/12/27 00:04:55;;;;;;;5.73;2.60;;;;;;;;;;5013420;28;20205;-48
2022/12/27 00:07:21;;;;;;;5.60;2.77;;;;;;;;;;5013179;28;20479;-48
2022/12/27 00:09:47;;;;;;;4.73;2.40;;;;;;;;;;5013407;28;20209;-49
2022/12/27 00:12:13;;;;;;;8.97;2.50;;;;;;;;;;5013183;28;20487;-47
2022/12/27 00:14:39;;;;;;;6.33;2.33;;;;;;;;;;5012902;28;20487;-49
2022/12/27 00:17:05;;;;;;;7.70;2.70;;;;;;;;;;5012534;28;20490;-49
2022/12/27 00:19:32;;;;;;;5.67;2.57;;;;;;;;;;5012898;28;20444;-49
2022/12/27 00:21:58;;;;;;;8.17;2.60;;;;;;;;;;5012917;28;20206;-49
2022/12/27 00:24:24;;;;;;;4.33;2.00;;;;;;;;;;5012908;28;20439;-49
2022/12/27 00:26:50;;;;;;;6.73;2.77;;;;;;;;;;5012991;28;20775;-47
2022/12/27 00:29:16;;;;;;;5.40;2.60;;;;;;;;;;5012728;28;20244;-47
2022/12/27 00:31:42;;;;;;;6.73;2.07;;;;;;;;;;5012229;28;20515;-49
2022/12/27 00:34:08;;;;;;;6.53;2.10;;;;;;;;;;5012662;28;20464;-48
2022/12/27 00:36:35;;;;;;;3.70;2.03;;;;;;;;;;5012479;28;20440;-48
2022/12/27 00:39:01;;;;;;;6.63;2.50;;;;;;;;;;5012602;28;21281;-48
2022/12/27 00:41:27;;;;;;;7.67;2.37;;;;;;;;;;5012670;28;20955;-47
2022/12/27 00:43:54;;;;;;;4.90;2.10;;;;;;;;;;5012561;28;20198;-47
2022/12/27 00:46:20;;;;;;;8.57;2.43;;;;;;;;;;5012418;28;20460;-47
2022/12/27 00:48:46;;;;;;;3.43;2.10;;;;;;;;;;5012364;28;20983;-47
2022/12/27 00:51:13;;;;;;;3.67;2.40;;;;;;;;;;5012497;28;20964;-46
2022/12/27 00:53:40;;;;;;;5.50;2.27;;;;;;;;;;5012506;28;20433;-47
2022/12/27 00:56:07;;;;;;;6.43;2.40;;;;;;;;;;5012239;28;21030;-46
2022/12/27 00:58:33;;;;;;;5.87;2.90;;;;;;;;;;5012146;28;20464;-47
2022/12/27 01:01:05;;;;;;;5.10;2.30;;;;;;;;;;5012027;28;20459;-46
2022/12/27 01:03:31;;;;;;;5.33;2.27;;;;;;;;;;5012098;28;20813;-48
2022/12/27 01:05:57;;;;;;;3.47;2.40;;;;;;;;;;5012180;28;20441;-47
2022/12/27 01:08:23;;;;;;;9.83;2.37;;;;;;;;;;5011958;28;20468;-47
2022/12/27 01:10:50;;;;;;;5.13;2.40;;;;;;;;;;5011731;28;20589;-48
2022/12/27 01:13:16;;;;;;;4.87;3.10;;;;;;;;;;5011933;28;20451;-47
2022/12/27 01:15:42;;;;;;;5.70;2.40;;;;;;;;;;5011915;28;20887;-48
2022/12/27 01:18:08;;;;;;;7.43;3.03;;;;;;;;;;5011879;28;20186;-47
2022/12/27 01:20:36;;;;;;;7.67;2.83;;;;;;;;;;5011711;28;20201;-47
2022/12/27 01:23:02;;;;;;;11.03;2.63;;;;;;;;;;5012007;28;20197;-47
2022/12/27 01:25:28;;;;;;;4.63;2.37;;;;;;;;;;5011744;28;20811;-48
2022/12/27 01:27:56;;;;;;;9.33;2.83;;;;;;;;;;5011463;28;20244;-47
2022/12/27 01:30:22;;;;;;;5.67;2.60;;;;;;;;;;5011713;28;20206;-48
2022/12/27 01:32:47;;;;;;;4.67;3.03;;;;;;;;;;5011774;28;20444;-47
2022/12/27 01:35:13;;;;;;;4.83;2.57;;;;;;;;;;5011559;28;20930;-46
2022/12/27 01:37:39;;;;;;;6.70;2.40;;;;;;;;;;5011182;28;20201;-48
2022/12/27 01:40:06;;;;;;;5.70;2.80;;;;;;;;;;5011538;28;20492;-49
2022/12/27 01:42:50;;;;;;;9.70;2.83;;;;;;;;;;5011394;28;20300;-47
2022/12/27 01:45:18;;;;;;;6.33;2.47;;;;;;;;;;5011626;28;20436;-47
2022/12/27 01:47:48;;;;;;;8.97;2.80;;;;;;;;;;5011359;28;20543;-48
2022/12/27 01:50:18;;;;;;;7.23;2.30;;;;;;;;;;5011730;28;20817;-49
2022/12/27 01:52:46;;;;;;;5.70;2.50;;;;;;;;;;5011423;28;20452;-48
2022/12/27 01:55:16;;;;;;;7.03;2.80;;;;;;;;;;5011575;28;20428;-47
2022/12/27 01:57:42;;;;;;;6.37;2.67;;;;;;;;;;5010898;28;20452;-48
2022/12/27 02:00:09;;;;;;;8.03;3.30;;;;;;;;;;5011655;28;20486;-48
2022/12/27 02:02:36;;;;;;;5.70;2.57;;;;;;;;;;5011112;28;20444;-47
2022/12/27 02:05:03;;;;;;;6.77;2.77;;;;;;;;;;5011330;28;20433;-48
2022/12/27 02:07:33;;;;;;;4.93;2.73;;;;;;;;;;5011009;28;20527;-47
2022/12/27 02:10:00;;;;;;;3.50;2.77;;;;;;;;;;5011211;28;20510;-48
2022/12/27 02:12:26;;;;;;;7.73;2.87;;;;;;;;;;5011049;28;20452;-48
2022/12/27 02:14:52;;;;;;;5.30;2.17;;;;;;;;;;5011116;28;20464;-47
2022/12/27 02:17:20;;;;;;;6.67;2.50;;;;;;;;;;5011016;28;20978;-48
2022/12/27 02:19:52;;;;;;;5.00;2.50;;;;;;;;;;5011059;28;20193;-47
2022/12/27 02:24:01;;;;;;;9.53;3.07;;;;;;;;;;5011050;28;20528;-49
2022/12/27 02:25:25;;;;;;;6.77;3.00;;;;;;;;;;5010902;28;20437;-47
2022/12/27 02:28:02;;;;;;;3.93;2.47;;;;;;;;;;5010749;28;20832;-48
2022/12/27 02:30:31;;;;;;;4.90;2.90;;;;;;;;;;5010906;28;20472;-48
2022/12/27 02:32:59;;;;;;;6.23;2.93;;;;;;;;;;5011039;28;20492;-47
2022/12/27 02:35:27;;;;;;;7.27;2.80;;;;;;;;;;5011127;28;20500;-47
2022/12/27 02:37:56;;;;;;;7.60;3.03;;;;;;;;;;5011248;28;20448;-48
2022/12/27 02:54:45;;;;;;;7.00;2.90;;;;;;;;;;5014656;28;20459;-47
2022/12/27 02:57:17;;;;;;;9.70;3.90;;;;;;;;;;5014612;28;20483;-48
2022/12/27 03:03:19;;;;;;;6.87;3.20;;;;;;;;;;5014311;28;20463;-48
2022/12/27 03:03:22;;;;;;;10.90;3.73;;;;;;;;;;5014326;28;20447;-48
2022/12/27 03:08:46;;;;;;;10.40;3.33;;;;;;;;;;5014320;28;20478;-48
2022/12/27 03:16:54;;;;;;;7.63;3.63;;;;;;;;;;5014141;28;20468;-47
2022/12/27 03:27:41;;;;;;;7.90;3.60;;;;;;;;;;5013792;28;20889;-48
2022/12/27 03:33:13;;;;;;;10.57;4.17;;;;;;;;;;5013819;28;20443;-48
2022/12/27 03:35:41;;;;;;;4.83;2.97;;;;;;;;;;5013718;28;20547;-47
2022/12/27 03:38:11;;;;;;;10.30;3.27;;;;;;;;;;5013749;28;20447;-49
2022/12/27 03:43:09;;;;;;;6.27;3.30;;;;;;;;;;5013598;28;20483;-49
2022/12/27 03:43:27;;;;;;;7.53;3.33;;;;;;;;;;5013629;28;20506;-47
2022/12/27 03:49:04;;;;;;;9.13;3.90;;;;;;;;;;4972144;28;20973;-48
2022/12/27 03:51:32;;;;;;;14.33;3.40;;;;;;;;;;5006959;28;20444;-47
2022/12/27 03:54:03;;;;;;;9.50;3.60;;;;;;;;;;5013629;28;20441;-47
2022/12/27 03:56:29;;;;;;;7.23;3.70;;;;;;;;;;5013447;28;20452;-47
2022/12/27 03:58:57;;;;;;;8.33;3.50;;;;;;;;;;5012922;28;20477;-47
2022/12/27 04:01:22;;;;;;;5.57;3.63;;;;;;;;;;5013161;28;20463;-47
2022/12/27 04:03:48;;;;;;;11.93;3.50;;;;;;;;;;5003530;28;20438;-48
2022/12/27 04:06:14;;;;;;;8.63;3.93;;;;;;;;;;4993624;28;20208;-47
2022/12/27 04:36:09;;;;;;;8.47;5.20;;;;;;;;;;4993196;28;20425;-47
2022/12/27 04:38:35;;;;;;;7.47;4.60;;;;;;;;;;4992936;28;20564;-48
2022/12/27 04:55:16;;;;;;;7.70;4.70;;;;;;;;;;4951827;29;20471;-47
2022/12/27 04:57:42;;;;;;;8.80;5.50;;;;;;;;;;4985464;28;20438;-47
2022/12/27 05:02:55;;;;;;;9.90;5.80;;;;;;;;;;4992661;28;20197;-47
2022/12/27 05:05:22;;;;;;;7.40;5.50;;;;;;;;;;4992778;28;20444;-46
2022/12/27 05:16:04;;;;;;;10.83;5.80;;;;;;;;;;4992601;28;20512;-47
2022/12/27 05:18:30;;;;;;;9.27;5.33;;;;;;;;;;4992593;28;20528;-47
2022/12/27 05:21:00;;;;;;;10.17;5.60;;;;;;;;;;4992318;28;20854;-47
2022/12/27 05:26:17;;;;;;;12.07;5.13;;;;;;;;;;4992358;28;20477;-47
2022/12/27 05:28:43;;;;;;;8.50;5.10;;;;;;;;;;4992042;28;20473;-47
2022/12/27 05:31:10;;;;;;;10.73;5.17;;;;;;;;;;4992375;28;20768;-47
2022/12/27 05:33:36;;;;;;;8.93;4.90;;;;;;;;;;4991985;28;20214;-47
2022/12/27 05:36:02;;;;;;;8.77;5.17;;;;;;;;;;4992280;28;20440;-47
2022/12/27 05:38:28;;;;;;;8.30;4.53;;;;;;;;;;4992240;28;20276;-48
2022/12/27 05:40:57;;;;;;;11.63;5.10;;;;;;;;;;4991943;28;20618;-47
2022/12/27 05:43:23;;;;;;;7.93;5.27;;;;;;;;;;4991925;28;20932;-47
2022/12/27 05:45:49;;;;;;;10.47;5.27;;;;;;;;;;4991957;28;20436;-47
2022/12/27 05:48:17;;;;;;;9.33;5.00;;;;;;;;;;4992064;28;20234;-47
2022/12/27 05:50:43;;;;;;;6.40;5.03;;;;;;;;;;4991931;28;20441;-47
2022/12/27 05:53:09;;;;;;;10.50;6.00;;;;;;;;;;4992155;28;20481;-48
2022/12/27 05:55:35;;;;;;;10.73;4.90;;;;;;;;;;4991855;28;20433;-48
2022/12/27 05:58:01;;;;;;;9.13;5.13;;;;;;;;;;4992015;28;20563;-48
2022/12/27 06:00:27;;;;;;;7.93;5.13;;;;;;;;;;4991844;28;20210;-48
2022/12/27 06:02:53;;;;;;;7.43;5.47;;;;;;;;;;4991904;28;20234;-47
2022/12/27 06:05:20;;;;;;;14.80;5.70;;;;;;;;;;4991950;28;20202;-47
2022/12/27 06:07:46;;;;;;;12.47;5.80;;;;;;;;;;4991620;28;20206;-48
2022/12/27 06:10:12;;;;;;;9.70;5.50;;;;;;;;;;4991883;28;20437;-48
2022/12/27 06:12:38;;;;;;;7.23;5.80;;;;;;;;;;4991677;28;20208;-47
2022/12/27 06:15:05;;;;;;;10.93;5.30;;;;;;;;;;4991878;28;20205;-47
2022/12/27 06:17:31;;;;;;;9.77;5.80;;;;;;;;;;4991697;28;20202;-47
2022/12/27 06:19:57;;;;;;;9.80;5.10;;;;;;;;;;4991756;28;20457;-47
2022/12/27 06:22:24;;;;;;;10.77;5.77;;;;;;;;;;4992809;28;20481;-47
2022/12/27 06:24:50;;;;;;;6.97;5.23;;;;;;;;;;4995652;28;20209;-47
2022/12/27 06:27:16;;;;;;;13.53;5.70;;;;;;;;;;4995596;28;20939;-47
2022/12/27 06:29:42;;;;;;;8.13;4.70;;;;;;;;;;4995337;28;20261;-48
2022/12/27 06:32:08;;;;;;;7.23;5.10;;;;;;;;;;4995540;28;20198;-48
2022/12/27 06:34:34;;;;;;;8.63;5.10;;;;;;;;;;4995369;28;20249;-48
2022/12/27 06:37:00;;;;;;;7.63;5.03;;;;;;;;;;4995637;28;20206;-47
2022/12/27 06:39:27;;;;;;;8.03;5.00;;;;;;;;;;4995241;28;20739;-48
2022/12/27 06:41:55;;;;;;;9.97;5.50;;;;;;;;;;4995267;28;20285;-47
2022/12/27 06:44:21;;;;;;;8.57;5.10;;;;;;;;;;4995334;28;20441;-47
2022/12/27 06:46:47;;;;;;;9.53;5.30;;;;;;;;;;4995375;28;20488;-47
2022/12/27 06:49:13;;;;;;;9.00;5.27;;;;;;;;;;4995276;28;21018;-47
2022/12/27 06:51:39;;;;;;;7.47;5.13;;;;;;;;;;4995094;28;20524;-48
2022/12/27 06:54:05;;;;;;;7.03;4.50;;;;;;;;;;4995224;28;20989;-48
2022/12/27 06:56:33;;;;;;;5.57;4.60;;;;;;;;;;4995045;28;20293;-47
2022/12/27 06:58:59;;;;;;;7.60;4.70;;;;;;;;;;4995249;28;20511;-48
2022/12/27 07:01:26;;;;;;;6.27;4.60;;;;;;;;;;4995007;28;20472;-47
2022/12/27 07:03:52;;;;;;;6.50;4.70;;;;;;;;;;4994827;28;20206;-48
2022/12/27 07:06:19;;;;;;;6.50;4.53;;;;;;;;;;4994944;28;20504;-48
2022/12/27 07:08:45;;;;;;;7.13;4.37;;;;;;;;;;4994694;28;20489;-47
2022/12/27 07:11:12;;;;;;;7.97;4.80;;;;;;;;;;4994744;28;20449;-48
2022/12/27 07:13:40;;;;;;;8.87;4.40;;;;;;;;;;4994548;28;20995;-48
2022/12/27 07:16:07;;;;;;;7.83;4.23;;;;;;;;;;4994752;28;20468;-48
2022/12/27 07:18:33;;;;;;;6.70;4.10;;;;;;;;;;4994637;28;20452;-47
2022/12/27 07:20:59;;;;;;;6.40;4.27;;;;;;;;;;4994811;28;20452;-48
2022/12/27 07:23:25;;;;;;;9.03;4.63;;;;;;;;;;4994614;28;20477;-48
2022/12/27 07:25:51;;;;;;;8.63;4.63;;;;;;;;;;4994453;28;20488;-48
2022/12/27 07:28:17;;;;;;;9.13;5.53;;;;;;;;;;4994558;28;20221;-49
2022/12/27 07:30:44;;;;;;;7.97;4.50;;;;;;;;;;4994378;28;20206;-48
2022/12/27 07:33:10;;;;;;;7.27;4.20;;;;;;;;;;4994321;28;21015;-48
2022/12/27 07:35:36;;;;;;;7.47;4.70;;;;;;;;;;4993551;28;20536;-47
2022/12/27 07:38:02;;;;;;;6.80;3.90;;;;;;;;;;4994453;28;20198;-48
2022/12/27 07:40:28;;;;;;;10.00;4.60;;;;;;;;;;4994284;28;20269;-47
2022/12/27 07:42:54;;;;;;;8.00;4.53;;;;;;;;;;4994063;28;20473;-47
2022/12/27 07:45:20;;;;;;;7.13;4.10;;;;;;;;;;4994143;28;20206;-48
2022/12/27 07:47:47;;;;;;;8.10;4.50;;;;;;;;;;4994071;28;20254;-48
2022/12/27 07:50:13;;;;;;;9.23;4.33;;;;;;;;;;4994294;28;20206;-48
2022/12/27 07:52:39;;;;;;;6.27;3.73;;;;;;;;;;4993986;28;20532;-48
2022/12/27 07:55:05;;;;;;;6.80;4.00;;;;;;;;;;4993995;28;20521;-48
2022/12/27 07:57:32;;;;;;;5.07;3.97;;;;;;;;;;4993689;28;20210;-48
2022/12/27 07:59:58;;;;;;;6.80;4.83;;;;;;;;;;4993843;28;20489;-48
2022/12/27 08:02:24;;;;;;;6.50;4.70;;;;;;;;;;4993710;28;21130;-47
2022/12/27 08:04:51;;;;;;;6.37;4.43;;;;;;;;;;4993506;28;20611;-45
2022/12/27 08:07:18;;;;;;;6.57;4.13;;;;;;;;;;4993721;28;20441;-46
2022/12/27 08:09:46;;;;;;;7.20;4.30;;;;;;;;;;4993665;28;20541;-46
2022/12/27 08:12:12;;;;;;;8.27;4.33;;;;;;;;;;4993546;28;20532;-47
2022/12/27 08:14:38;;;;;;;11.70;4.53;;;;;;;;;;4993752;28;20434;-46
2022/12/27 08:17:05;;;;;;;8.90;5.27;;;;;;;;;;4994107;28;20433;-46
2022/12/27 08:19:31;;;;;;;7.07;4.17;;;;;;;;;;4993952;28;20469;-47
2022/12/27 08:21:58;;;;;;;6.53;4.60;;;;;;;;;;4991798;28;20475;-48
2022/12/27 08:24:24;;;;;;;8.83;4.37;;;;;;;;;;4992952;28;20464;-48
2022/12/27 08:26:50;;;;;;;6.60;3.83;;;;;;;;;;4993498;28;20442;-48
2022/12/27 08:29:16;;;;;;;6.37;4.83;;;;;;;;;;4993539;28;20226;-48
2022/12/27 08:31:42;;;;;;;14.20;12.07;;;;;;;;;;4993527;28;20221;-48
2022/12/27 08:34:08;;;;;;;12.40;6.03;;;;;;;;;;4993553;28;20214;-47
2022/12/27 08:36:34;;;;;;;7.07;5.20;;;;;;;;;;4992998;28;20445;-47
2022/12/27 08:39:02;;;;;;;8.00;5.27;;;;;;;;;;4993116;28;20206;-48
2022/12/27 08:41:28;;;;;;;9.23;4.50;;;;;;;;;;4993160;28;20225;-48
2022/12/27 08:43:54;;;;;;;8.27;4.30;;;;;;;;;;4993052;28;20206;-48
2022/12/27 08:46:20;;;;;;;9.27;4.50;;;;;;;;;;4992108;28;20225;-48
2022/12/27 08:48:46;;;;;;;6.40;4.40;;;;;;;;;;4992924;28;20680;-48
2022/12/27 08:51:12;;;;;;;11.03;4.37;;;;;;;;;;4992943;28;20680;-48
2022/12/27 08:53:38;;;;;;;5.20;3.87;;;;;;;;;;4992912;28;20206;-47
2022/12/27 08:56:06;;;;;;;7.27;4.00;;;;;;;;;;4993031;28;20194;-49
2022/12/27 08:58:32;;;;;;;10.63;6.17;;;;;;;;;;4992718;28;20198;-48
2022/12/27 09:01:03;;;;;;;9.90;4.80;;;;;;;;;;4992917;28;20198;-49
2022/12/27 09:03:30;;;;;;;5.83;3.73;;;;;;;;;;4992876;28;20289;-48
2022/12/27 09:06:05;;;;;;;6.27;4.13;;;;;;;;;;4992698;28;20342;-47
2022/12/27 09:08:31;;;;;;;8.40;3.57;;;;;;;;;;4992643;28;20226;-49
2022/12/27 09:11:05;;;;;;;6.97;3.50;;;;;;;;;;4992520;28;20277;-48
2022/12/27 09:13:33;;;;;;;6.03;4.10;;;;;;;;;;4992549;28;20215;-48
2022/12/27 09:16:04;;;;;;;7.33;4.07;;;;;;;;;;4992552;28;20221;-48
2022/12/27 09:18:30;;;;;;;6.77;4.60;;;;;;;;;;4992783;28;20194;-48
2022/12/27 09:21:01;;;;;;;9.70;4.20;;;;;;;;;;4992455;28;20645;-48
2022/12/27 09:23:29;;;;;;;10.13;4.07;;;;;;;;;;4992522;28;20194;-48
2022/12/27 09:25:55;;;;;;;5.37;3.57;;;;;;;;;;4992353;28;20210;-48
2022/12/27 09:28:21;;;;;;;4.43;4.03;;;;;;;;;;4992320;28;20338;-47
2022/12/27 09:30:48;;;;;;;7.03;3.93;;;;;;;;;;4992412;28;20209;-47
2022/12/27 09:33:14;;;;;;;8.07;3.60;;;;;;;;;;4991348;28;20206;-47
2022/12/27 09:35:40;;;;;;;9.57;3.53;;;;;;;;;;4991061;28;20218;-48
2022/12/27 09:38:06;;;;;;;5.47;3.40;;;;;;;;;;4992711;28;20225;-48
2022/12/27 09:40:32;;;;;;;7.67;4.30;;;;;;;;;;4992412;28;20242;-48
2022/12/27 09:43:05;;;;;;;5.77;2.90;;;;;;;;;;4992364;28;20282;-48
2022/12/27 09:45:35;;;;;;;4.13;2.60;;;;;;;;;;4992681;28;20209;-48
2022/12/27 09:48:03;;;;;;;4.67;2.87;;;;;;;;;;4992003;28;20225;-48
2022/12/27 09:50:32;;;;;;;5.90;3.00;;;;;;;;;;4992422;28;20206;-48
2022/12/27 09:53:00;;;;;;;3.83;2.57;;;;;;;;;;4992339;28;20261;-49
2022/12/27 09:55:34;;;;;;;4.60;2.67;;;;;;;;;;4992248;28;20305;-49
2022/12/27 09:58:05;;;;;;;6.00;3.00;;;;;;;;;;4991811;28;20306;-48
2022/12/27 10:00:31;;;;;;;4.43;2.80;;;;;;;;;;4992269;28;20249;-49
2022/12/27 10:02:57;;;;;;;5.13;3.00;;;;;;;;;;4992056;28;20760;-50
2022/12/27 10:05:28;;;;;;;7.67;2.97;;;;;;;;;;4992250;28;20208;-49
2022/12/27 10:08:00;;;;;;;3.67;2.77;;;;;;;;;;4992026;28;20236;-49
2022/12/27 10:10:35;;;;;;;5.40;2.80;;;;;;;;;;4992171;28;20275;-49
2022/12/27 10:13:05;;;;;;;4.03;2.70;;;;;;;;;;4992144;28;20225;-48
2022/12/27 10:15:36;;;;;;;7.50;2.80;;;;;;;;;;4992113;28;20194;-50
2022/12/27 10:18:06;;;;;;;5.80;2.87;;;;;;;;;;4992248;28;20194;-49
2022/12/27 10:20:37;;;;;;;6.07;3.00;;;;;;;;;;4991913;28;20670;-51
2022/12/27 10:23:05;;;;;;;8.03;3.90;;;;;;;;;;4991879;28;20284;-48
2022/12/27 10:25:33;;;;;;;5.83;2.97;;;;;;;;;;4991701;28;20240;-49
2022/12/27 10:28:00;;;;;;;6.27;3.37;;;;;;;;;;4991468;28;20224;-49
2022/12/27 10:30:27;;;;;;;8.70;3.50;;;;;;;;;;4991600;28;20624;-48
2022/12/27 10:32:54;;;;;;;5.83;3.00;;;;;;;;;;4991761;28;20244;-50
2022/12/27 10:35:20;;;;;;;7.00;3.10;;;;;;;;;;4991630;28;20245;-56
2022/12/27 10:37:48;;;;;;;6.20;3.20;;;;;;;;;;4991594;28;20248;-49
2022/12/27 10:40:16;;;;;;;6.33;3.13;;;;;;;;;;4991586;28;20234;-49
2022/12/27 10:42:44;;;;;;;17.17;10.77;;;;;;;;;;4991477;28;20221;-48
2022/12/27 10:45:35;;;;;;;5.77;3.50;;;;;;;;;;4991552;28;20213;-49
2022/12/27 10:48:12;;;;;;;5.63;2.93;;;;;;;;;;4988145;28;20211;-49
2022/12/27 10:50:38;;;;;;;10.87;3.67;;;;;;;;;;4991049;28;20583;-48
2022/12/27 10:53:06;;;;;;;5.27;4.00;;;;;;;;;;4991393;28;20752;-50
2022/12/27 10:55:35;;;;;;;5.77;3.30;;;;;;;;;;5003560;28;20202;-50
2022/12/27 10:58:18;;;;;;;5.40;3.03;;;;;;;;;;5010762;28;20208;-49
2022/12/27 11:00:52;;;;;;;8.30;4.73;;;;;;;;;;5010830;28;20193;-49
2022/12/27 11:03:18;;;;;;;6.83;3.33;;;;;;;;;;5010954;28;20679;-49
2022/12/27 11:05:58;;;;;;;7.83;3.40;;;;;;;;;;5010834;28;20208;-48
2022/12/27 11:08:28;;;;;;;4.90;2.90;;;;;;;;;;5011006;28;20308;-49
2022/12/27 11:11:11;;;;;;;4.93;2.53;;;;;;;;;;5013976;28;20299;-50
2022/12/27 11:13:37;;;;;;;6.50;2.30;;;;;;;;;;5014784;28;20225;-49
2022/12/27 11:16:03;;;;;;;4.40;2.40;;;;;;;;;;5014645;28;20384;-52
2022/12/27 11:18:31;;;;;;;5.60;2.40;;;;;;;;;;5014672;28;20194;-49
2022/12/27 11:20:59;;;;;;;4.67;2.03;;;;;;;;;;5014685;28;20197;-49
2022/12/27 11:23:30;;;;;;;7.00;2.50;;;;;;;;;;5014604;28;20301;-51
2022/12/27 11:25:57;;;;;;;7.67;2.80;;;;;;;;;;5014238;28;20284;-49
2022/12/27 11:28:33;;;;;;;5.73;2.50;;;;;;;;;;5014359;28;20226;-49
2022/12/27 11:31:00;;;;;;;3.93;2.37;;;;;;;;;;5014302;28;20201;-47
2022/12/27 11:33:31;;;;;;;4.33;2.40;;;;;;;;;;5014112;28;20205;-49
2022/12/27 11:35:58;;;;;;;6.17;2.40;;;;;;;;;;5013902;28;20249;-49
2022/12/27 11:38:25;;;;;;;6.40;2.47;;;;;;;;;;5014076;28;20201;-50
2022/12/27 11:40:56;;;;;;;5.67;2.50;;;;;;;;;;5013789;28;20234;-49
2022/12/27 11:43:26;;;;;;;7.40;2.93;;;;;;;;;;5014376;28;20205;-49
2022/12/27 11:45:53;;;;;;;6.30;2.80;;;;;;;;;;5014007;28;20285;-49
2022/12/27 11:48:22;;;;;;;4.87;2.90;;;;;;;;;;5014090;28;20230;-51
2022/12/27 11:51:09;;;;;;;8.93;3.87;;;;;;;;;;5013998;28;20284;-50
2022/12/27 11:53:50;;;;;;;4.30;2.73;;;;;;;;;;5001697;28;20240;-49
2022/12/27 11:56:23;;;;;;;7.40;3.00;;;;;;;;;;5012186;28;20288;-48
2022/12/27 11:59:00;;;;;;;8.23;3.40;;;;;;;;;;5012622;28;20233;-47
2022/12/27 12:01:33;;;;;;;5.83;3.43;;;;;;;;;;5013350;28;20216;-48
2022/12/27 12:04:06;;;;;;;6.47;3.70;;;;;;;;;;5013635;28;20205;-48
2022/12/27 12:06:38;;;;;;;8.20;4.67;;;;;;;;;;5013693;28;20563;-49
2022/12/27 12:09:15;;;;;;;11.77;3.60;;;;;;;;;;5013569;28;20253;-49
2022/12/27 12:11:51;;;;;;;11.70;4.10;;;;;;;;;;5013587;28;20208;-49
2022/12/27 12:14:29;;;;;;;7.23;3.63;;;;;;;;;;5013654;28;20300;-49
2022/12/27 12:17:04;;;;;;;8.60;3.63;;;;;;;;;;5013474;28;20682;-48
2022/12/27 12:19:37;;;;;;;7.13;3.30;;;;;;;;;;5013502;28;20197;-48
2022/12/27 12:22:12;;;;;;;5.10;2.97;;;;;;;;;;5013354;28;20213;-48
2022/12/27 12:24:44;;;;;;;5.83;2.97;;;;;;;;;;5013381;28;20290;-51
2022/12/27 12:27:21;;;;;;;4.87;3.03;;;;;;;;;;5013354;28;20205;-48
2022/12/27 12:30:01;;;;;;;5.30;3.00;;;;;;;;;;5013181;28;20287;-49
2022/12/27 12:32:35;;;;;;;7.20;3.47;;;;;;;;;;5013298;28;20197;-48
2022/12/27 12:35:31;;;;;;;6.13;3.07;;;;;;;;;;5013268;28;20217;-48
2022/12/27 12:38:15;;;;;;;6.17;2.80;;;;;;;;;;4972093;28;20585;-50
2022/12/27 12:40:55;;;;;;;8.50;3.57;;;;;;;;;;5007390;28;20638;-49
2022/12/27 12:43:29;;;;;;;5.50;3.20;;;;;;;;;;5012951;28;20568;-50
2022/12/27 12:46:00;;;;;;;6.47;3.83;;;;;;;;;;5012949;28;20194;-49
2022/12/27 12:48:37;;;;;;;4.93;3.13;;;;;;;;;;5012960;28;20225;-49
2022/12/27 12:51:17;;;;;;;8.03;3.60;;;;;;;;;;5012903;28;20205;-48
2022/12/27 12:53:51;;;;;;;5.70;3.40;;;;;;;;;;5012910;28;20205;-49
2022/12/27 12:56:26;;;;;;;7.73;3.70;;;;;;;;;;5012921;28;20283;-49
2022/12/27 12:58:59;;;;;;;9.03;3.77;;;;;;;;;;5012725;28;20263;-49
2022/12/27 13:01:29;;;;;;;6.53;3.83;;;;;;;;;;5012862;28;20627;-49
2022/12/27 13:04:07;;;;;;;9.37;4.47;;;;;;;;;;5012560;28;20300;-48
2022/12/27 13:06:44;;;;;;;6.30;3.73;;;;;;;;;;5012768;28;20197;-48
2022/12/27 13:09:17;;;;;;;6.77;3.50;;;;;;;;;;5010055;28;20791;-49
2022/12/27 13:11:46;;;;;;;6.30;3.37;;;;;;;;;;5011831;28;20205;-49
2022/12/27 13:14:26;;;;;;;7.57;3.87;;;;;;;;;;5012457;28;20587;-49
2022/12/27 13:16:56;;;;;;;10.40;4.40;;;;;;;;;;5012375;28;20332;-49
2022/12/27 13:19:46;;;;;;;9.50;4.10;;;;;;;;;;5012390;28;20605;-49
2022/12/27 13:22:15;;;;;;;8.10;4.50;;;;;;;;;;5002110;28;20237;-49
2022/12/27 13:24:49;;;;;;;7.60;3.33;;;;;;;;;;5011977;28;20206;-49
2022/12/27 13:27:20;;;;;;;7.43;3.70;;;;;;;;;;5012448;28;20259;-50
2022/12/27 13:29:53;;;;;;;8.60;3.50;;;;;;;;;;5012155;28;20247;-49
2022/12/27 13:32:25;;;;;;;6.53;3.63;;;;;;;;;;5011633;28;20685;-49
2022/12/27 13:34:57;;;;;;;8.10;3.37;;;;;;;;;;5012074;28;20595;-49
2022/12/27 13:37:29;;;;;;;8.60;3.70;;;;;;;;;;5012190;28;20563;-49
2022/12/27 13:40:17;;;;;;;5.23;3.30;;;;;;;;;;5011937;28;20387;-48
2022/12/27 13:42:56;;;;;;;7.70;3.60;;;;;;;;;;5011568;28;20198;-49
2022/12/27 13:45:35;;;;;;;9.57;3.60;;;;;;;;;;5011823;28;20648;-49
2022/12/27 13:48:12;;;;;;;8.50;3.17;;;;;;;;;;5011742;28;20807;-49
2022/12/27 13:50:48;;;;;;;8.93;3.60;;;;;;;;;;5012095;28;20204;-49
2022/12/27 13:53:23;;;;;;;8.90;3.57;;;;;;;;;;5011907;28;20608;-48
2022/12/27 13:55:53;;;;;;;7.80;3.57;;;;;;;;;;5011798;28;20201;-49
2022/12/27 13:58:52;;;;;;;5.27;3.30;;;;;;;;;;5012003;28;20204;-49
2022/12/27 14:01:28;;;;;;;6.60;3.60;;;;;;;;;;4970367;28;20202;-49
2022/12/27 14:04:05;;;;;;;7.10;3.50;;;;;;;;;;4969645;28;20202;-49
2022/12/27 14:06:38;;;;;;;7.90;3.90;;;;;;;;;;4992395;28;20216;-49
2022/12/27 14:09:30;;;;;;;11.83;4.70;;;;;;;;;;5011467;28;20206;-48
2022/12/27 14:12:03;;;;;;;10.37;4.33;;;;;;;;;;5010966;28;20198;-49
2022/12/27 14:14:30;;;;;;;5.77;3.77;;;;;;;;;;5011611;28;20206;-48
2022/12/27 14:17:07;;;;;;;12.03;4.40;;;;;;;;;;5010246;28;20255;-49
2022/12/27 14:19:44;;;;;;;6.53;3.87;;;;;;;;;;5011909;28;20202;-48
2022/12/27 14:22:27;;;;;;;8.57;4.40;;;;;;;;;;5011873;28;20254;-49
2022/12/27 14:25:07;;;;;;;9.33;3.80;;;;;;;;;;5011664;28;20638;-49
2022/12/27 14:27:52;;;;;;;6.70;4.17;;;;;;;;;;5008112;28;20189;-49
2022/12/27 14:30:28;;;;;;;11.60;4.23;;;;;;;;;;5011384;28;20231;-49
2022/12/27 14:33:10;;;;;;;7.40;4.47;;;;;;;;;;5011222;28;20206;-49
2022/12/27 14:35:54;;;;;;;5.67;4.00;;;;;;;;;;5010868;28;20789;-49
2022/12/27 14:38:40;;;;;;;7.63;4.10;;;;;;;;;;5010494;28;20193;-49
2022/12/27 14:41:29;;;;;;;7.70;4.20;;;;;;;;;;5009485;28;20233;-48
2022/12/27 14:44:14;;;;;;;6.33;3.77;;;;;;;;;;5012595;28;20193;-49
2022/12/27 14:46:55;;;;;;;9.17;4.57;;;;;;;;;;5014446;28;20217;-49
2022/12/27 14:49:42;;;;;;;7.47;4.10;;;;;;;;;;5013010;28;20252;-49
2022/12/27 14:52:23;;;;;;;7.63;4.87;;;;;;;;;;5014645;28;20202;-49
2022/12/27 14:55:06;;;;;;;7.60;4.27;;;;;;;;;;5014500;28;20964;-49
2022/12/27 14:57:35;;;;;;;8.43;4.00;;;;;;;;;;5014802;28;20197;-50
2022/12/27 15:00:03;;;;;;;9.30;4.43;;;;;;;;;;5014518;28;20205;-49
2022/12/27 15:02:35;;;;;;;13.70;4.70;;;;;;;;;;5014274;28;20543;-49
2022/12/27 15:05:11;;;;;;;7.73;4.50;;;;;;;;;;5014170;28;20665;-50
2022/12/27 15:07:43;;;;;;;6.80;4.50;;;;;;;;;;5014502;28;20757;-49
2022/12/27 15:10:13;;;;;;;8.90;4.30;;;;;;;;;;5014283;28;20472;-50
2022/12/27 15:12:43;;;;;;;10.53;5.03;;;;;;;;;;5013084;28;20824;-49
2022/12/27 15:15:22;;;;;;;9.57;4.70;;;;;;;;;;5014489;28;20248;-49
2022/12/27 15:17:56;;;;;;;10.17;5.00;;;;;;;;;;5013650;28;21001;-49
2022/12/27 15:20:36;;;;;;;8.47;4.83;;;;;;;;;;5013137;28;20202;-49
2022/12/27 15:23:06;;;;;;;8.50;5.20;;;;;;;;;;5014061;28;20444;-50
2022/12/27 15:25:43;;;;;;;11.03;5.00;;;;;;;;;;5013820;28;20822;-48
2022/12/27 15:28:11;;;;;;;9.67;5.37;;;;;;;;;;5014035;28;20444;-48
2022/12/27 15:30:43;;;;;;;7.87;5.10;;;;;;;;;;5019196;28;20510;-48
2022/12/27 15:33:15;;;;;;;10.27;4.93;;;;;;;;;;5012101;28;21026;-48
2022/12/27 15:35:49;;;;;;;10.37;5.27;;;;;;;;;;5013987;28;20552;-48
2022/12/27 15:38:16;;;;;;;10.43;6.07;;;;;;;;;;5013717;28;20452;-47
2022/12/27 15:40:48;;;;;;;9.80;5.60;;;;;;;;;;5013329;28;20475;-48
2022/12/27 15:43:24;;;;;;;12.03;5.30;;;;;;;;;;5013478;28;20437;-47
2022/12/27 15:45:55;;;;;;;11.77;5.87;;;;;;;;;;5013382;28;20452;-48
2022/12/27 15:48:42;;;;;;;7.23;5.10;;;;;;;;;;5013044;28;20451;-48
2022/12/27 15:51:12;;;;;;;8.43;4.90;;;;;;;;;;5013132;28;20449;-48
2022/12/27 15:53:52;;;;;;;8.30;4.80;;;;;;;;;;5013288;28;20847;-49
2022/12/27 15:56:23;;;;;;;9.20;5.57;;;;;;;;;;5012516;28;20442;-49
2022/12/27 15:59:04;;;;;;;8.83;5.63;;;;;;;;;;5012901;28;20440;-50
2022/12/27 16:01:31;;;;;;;8.70;5.37;;;;;;;;;;5012664;28;20441;-49
2022/12/27 16:03:58;;;;;;;10.83;5.80;;;;;;;;;;5013231;28;20539;-49
2022/12/27 16:06:42;;;;;;;11.63;6.13;;;;;;;;;;5013092;28;20440;-49
2022/12/27 16:09:24;;;;;;;11.10;5.80;;;;;;;;;;5012772;28;20467;-48
2022/12/27 16:11:58;;;;;;;10.90;5.97;;;;;;;;;;5013098;28;21026;-48
2022/12/27 16:14:28;;;;;;;8.77;5.27;;;;;;;;;;5012614;28;20444;-48
2022/12/27 16:16:55;;;;;;;8.17;5.60;;;;;;;;;;5012676;28;20451;-48
2022/12/27 16:19:39;;;;;;;6.73;5.33;;;;;;;;;;5012696;28;20531;-48
2022/12/27 16:22:14;;;;;;;10.63;5.20;;;;;;;;;;5011759;28;20441;-48
2022/12/27 16:24:41;;;;;;;15.00;6.27;;;;;;;;;;5012870;28;20444;-48
2022/12/27 16:27:26;;;;;;;11.50;6.53;;;;;;;;;;5012391;28;20531;-48
2022/12/27 16:29:54;;;;;;;10.73;6.07;;;;;;;;;;5012886;28;20487;-48
2022/12/27 16:32:22;;;;;;;11.73;5.73;;;;;;;;;;5012533;28;20441;-48